Time;durP1;ratioP1;P1;durP2;ratioP2;P2;SDS_P1;SDS_P2;PMS_P1;PMS_P2;Temp;Humidity;BMP_temperature;BMP_pressure;BME280_temperature;BME280_humidity;BME280_pressure;Samples;Min_cycle;Max_cycle;Signal;HPM_P1;HPM_P2
2021/07/19 00:01:02;;;;;;;10.38;4.20;;;;;;;;;;4952931;28;20089;-74
2021/07/19 00:03:27;;;;;;;7.05;3.55;;;;;;;;;;4952798;28;20494;-74
2021/07/19 00:05:53;;;;;;;8.95;3.97;;;;;;;;;;4970472;28;20041;-74
2021/07/19 00:08:18;;;;;;;6.60;3.38;;;;;;;;;;4953056;28;20561;-74
2021/07/19 00:10:44;;;;;;;8.82;4.40;;;;;;;;;;4953063;28;20019;-74
2021/07/19 00:13:09;;;;;;;7.00;3.75;;;;;;;;;;4953095;28;20042;-73
2021/07/19 00:15:35;;;;;;;8.40;3.88;;;;;;;;;;4952665;28;20038;-74
2021/07/19 00:18:01;;;;;;;5.65;3.53;;;;;;;;;;4952885;28;20058;-74
2021/07/19 00:20:27;;;;;;;6.47;3.58;;;;;;;;;;4952941;28;20030;-74
2021/07/19 00:22:53;;;;;;;11.82;3.88;;;;;;;;;;4970243;28;20034;-74
2021/07/19 00:25:20;;;;;;;8.55;4.00;;;;;;;;;;4952794;28;20031;-74
2021/07/19 00:27:46;;;;;;;6.07;3.75;;;;;;;;;;4955288;28;20378;-74
2021/07/19 00:30:15;;;;;;;7.60;3.90;;;;;;;;;;4956385;28;20398;-74
2021/07/19 00:32:42;;;;;;;7.95;3.78;;;;;;;;;;4973579;28;20042;-74
2021/07/19 00:35:09;;;;;;;7.93;3.35;;;;;;;;;;4956271;28;20502;-74
2021/07/19 00:37:35;;;;;;;8.38;3.78;;;;;;;;;;4973600;28;20106;-74
2021/07/19 00:40:04;;;;;;;7.97;3.60;;;;;;;;;;4956211;28;20070;-74
2021/07/19 00:42:30;;;;;;;7.60;3.90;;;;;;;;;;4955692;28;20089;-73
2021/07/19 00:44:55;;;;;;;9.07;4.00;;;;;;;;;;4973615;28;20054;-73
2021/07/19 00:47:21;;;;;;;5.47;3.55;;;;;;;;;;4956290;28;20458;-73
2021/07/19 00:49:46;;;;;;;8.38;4.25;;;;;;;;;;4956375;28;20018;-73
2021/07/19 00:52:12;;;;;;;8.95;4.10;;;;;;;;;;4955905;28;20062;-72
2021/07/19 00:54:38;;;;;;;8.02;3.60;;;;;;;;;;4955594;28;20399;-73
2021/07/19 00:57:06;;;;;;;5.05;3.35;;;;;;;;;;4973274;28;20092;-72
2021/07/19 00:59:34;;;;;;;8.25;4.28;;;;;;;;;;4955579;28;20546;-73
2021/07/19 01:02:02;;;;;;;8.50;3.47;;;;;;;;;;4955877;28;20077;-72
2021/07/19 01:04:30;;;;;;;5.68;3.58;;;;;;;;;;4955812;28;20058;-73
2021/07/19 01:07:03;;;;;;;14.18;4.07;;;;;;;;;;4973546;28;20038;-74
2021/07/19 01:09:29;;;;;;;9.20;3.97;;;;;;;;;;4973128;28;20106;-73
2021/07/19 01:11:59;;;;;;;5.28;3.50;;;;;;;;;;4972772;28;20102;-73
2021/07/19 01:14:26;;;;;;;7.43;3.67;;;;;;;;;;4955604;28;20026;-74
2021/07/19 01:16:52;;;;;;;8.75;4.22;;;;;;;;;;4955245;28;20629;-73
2021/07/19 01:19:18;;;;;;;12.65;4.13;;;;;;;;;;4955264;28;20080;-74
2021/07/19 01:22:11;;;;;;;10.25;5.53;;;;;;;;;;4972697;28;20027;-74
2021/07/19 01:24:43;;;;;;;8.40;3.75;;;;;;;;;;4955349;28;20033;-74
2021/07/19 01:27:25;;;;;;;5.05;3.55;;;;;;;;;;4972876;28;20105;-73
2021/07/19 01:29:52;;;;;;;6.78;4.13;;;;;;;;;;4972729;28;20053;-73
2021/07/19 01:32:19;;;;;;;7.43;4.13;;;;;;;;;;4955566;28;20030;-73
2021/07/19 01:34:46;;;;;;;7.25;3.83;;;;;;;;;;4955113;28;20027;-74
2021/07/19 01:37:13;;;;;;;5.60;3.92;;;;;;;;;;4972625;28;20109;-73
2021/07/19 01:39:40;;;;;;;8.25;3.70;;;;;;;;;;4955435;28;20482;-73
2021/07/19 01:42:07;;;;;;;10.80;4.38;;;;;;;;;;4972366;28;20503;-74
2021/07/19 01:44:33;;;;;;;5.95;3.88;;;;;;;;;;4972399;28;20084;-74
2021/07/19 01:47:00;;;;;;;10.90;4.90;;;;;;;;;;4954852;28;20027;-73
2021/07/19 01:49:27;;;;;;;11.43;5.05;;;;;;;;;;4955054;28;20060;-73
2021/07/19 01:51:53;;;;;;;6.43;3.85;;;;;;;;;;4954853;28;20129;-74
2021/07/19 01:54:20;;;;;;;9.95;4.80;;;;;;;;;;4955036;28;20035;-74
2021/07/19 01:56:48;;;;;;;9.48;4.93;;;;;;;;;;4954583;28;20026;-74
2021/07/19 01:59:15;;;;;;;6.63;3.95;;;;;;;;;;4972257;28;20035;-73
2021/07/19 02:01:41;;;;;;;9.23;4.97;;;;;;;;;;4954746;28;20035;-74
2021/07/19 02:04:09;;;;;;;11.48;5.82;;;;;;;;;;4954729;28;20026;-74
2021/07/19 02:06:36;;;;;;;7.63;4.55;;;;;;;;;;4971837;28;20034;-74
2021/07/19 02:09:06;;;;;;;7.38;4.72;;;;;;;;;;4954523;28;20038;-74
2021/07/19 02:11:32;;;;;;;7.25;4.50;;;;;;;;;;4972255;28;20034;-74
2021/07/19 02:13:59;;;;;;;8.63;4.00;;;;;;;;;;4954302;28;20038;-74
2021/07/19 02:16:29;;;;;;;10.38;4.90;;;;;;;;;;4954563;28;20058;-74
2021/07/19 02:18:57;;;;;;;13.15;5.03;;;;;;;;;;4972034;28;20558;-74
2021/07/19 02:21:27;;;;;;;11.18;4.88;;;;;;;;;;4954545;28;20221;-74
2021/07/19 02:23:53;;;;;;;10.95;5.10;;;;;;;;;;4971717;28;20030;-73
2021/07/19 02:26:23;;;;;;;8.60;5.13;;;;;;;;;;4954530;28;20104;-73
2021/07/19 02:28:50;;;;;;;14.45;5.18;;;;;;;;;;4953959;28;20391;-73
2021/07/19 02:31:18;;;;;;;10.65;4.85;;;;;;;;;;4971620;28;20053;-72
2021/07/19 02:33:47;;;;;;;10.57;5.00;;;;;;;;;;4956147;28;20042;-74
2021/07/19 02:36:14;;;;;;;9.23;4.68;;;;;;;;;;4963375;28;20033;-73
2021/07/19 02:38:43;;;;;;;7.53;4.55;;;;;;;;;;4963671;28;20098;-73
2021/07/19 02:41:11;;;;;;;14.93;4.85;;;;;;;;;;4978450;28;20031;-73
2021/07/19 02:43:37;;;;;;;9.07;4.72;;;;;;;;;;4971513;28;20026;-74
2021/07/19 02:46:03;;;;;;;6.20;4.78;;;;;;;;;;4954028;28;20027;-73
2021/07/19 02:48:36;;;;;;;14.93;5.28;;;;;;;;;;4953988;28;20077;-72
2021/07/19 02:51:03;;;;;;;15.60;5.95;;;;;;;;;;4953497;28;20364;-73
2021/07/19 02:53:30;;;;;;;7.20;4.55;;;;;;;;;;4971222;28;20102;-73
2021/07/19 02:55:58;;;;;;;11.15;4.90;;;;;;;;;;4953548;28;20481;-73
2021/07/19 02:58:23;;;;;;;6.50;4.45;;;;;;;;;;4953708;28;20117;-74
2021/07/19 03:00:50;;;;;;;8.25;4.88;;;;;;;;;;4953206;28;20169;-74
2021/07/19 03:03:23;;;;;;;7.60;4.53;;;;;;;;;;4953975;28;20771;-74
2021/07/19 03:06:01;;;;;;;8.48;5.00;;;;;;;;;;4953763;28;20482;-73
2021/07/19 03:08:32;;;;;;;12.70;4.65;;;;;;;;;;4953941;28;20035;-74
2021/07/19 03:10:59;;;;;;;17.00;5.53;;;;;;;;;;4953514;28;20150;-74
2021/07/19 03:13:27;;;;;;;8.93;4.82;;;;;;;;;;4970982;28;20022;-73
2021/07/19 03:15:56;;;;;;;9.05;4.93;;;;;;;;;;4953619;28;20386;-73
2021/07/19 03:18:23;;;;;;;16.40;5.70;;;;;;;;;;4970847;28;20105;-74
2021/07/19 03:20:50;;;;;;;13.75;5.55;;;;;;;;;;4969105;28;20471;-74
2021/07/19 03:23:20;;;;;;;11.50;5.13;;;;;;;;;;4971188;28;20035;-73
2021/07/19 03:25:46;;;;;;;16.35;7.68;;;;;;;;;;4953209;28;20475;-73
2021/07/19 03:28:13;;;;;;;10.40;5.10;;;;;;;;;;4971088;28;20027;-72
2021/07/19 03:30:43;;;;;;;12.52;5.32;;;;;;;;;;4970532;28;20030;-73
2021/07/19 03:33:10;;;;;;;10.13;4.85;;;;;;;;;;4971094;28;20052;-73
2021/07/19 03:35:36;;;;;;;10.57;5.93;;;;;;;;;;4970767;28;20058;-73
2021/07/19 03:38:02;;;;;;;14.10;4.82;;;;;;;;;;4970386;28;20028;-73
2021/07/19 03:40:29;;;;;;;12.07;5.32;;;;;;;;;;4970610;28;20033;-73
2021/07/19 03:42:57;;;;;;;9.15;4.97;;;;;;;;;;4970022;28;20058;-73
2021/07/19 03:45:24;;;;;;;9.80;5.90;;;;;;;;;;4970432;28;20498;-73
2021/07/19 03:47:50;;;;;;;7.65;4.63;;;;;;;;;;4952858;28;20038;-73
2021/07/19 03:50:16;;;;;;;12.30;5.55;;;;;;;;;;4970418;28;20039;-73
2021/07/19 03:52:43;;;;;;;8.30;4.82;;;;;;;;;;4952934;28;20030;-73
2021/07/19 03:55:10;;;;;;;9.35;5.18;;;;;;;;;;4970421;28;20035;-73
2021/07/19 03:57:39;;;;;;;9.68;5.53;;;;;;;;;;4953156;28;20041;-75
2021/07/19 04:00:11;;;;;;;11.68;5.50;;;;;;;;;;4952895;28;20110;-72
2021/07/19 04:02:37;;;;;;;7.45;4.80;;;;;;;;;;4974299;28;20027;-74
2021/07/19 04:05:09;;;;;;;16.83;5.82;;;;;;;;;;4973925;28;20054;-73
2021/07/19 04:07:37;;;;;;;9.48;5.97;;;;;;;;;;4974206;28;20023;-73
2021/07/19 04:10:08;;;;;;;12.48;5.70;;;;;;;;;;4973793;28;20026;-73
2021/07/19 04:12:34;;;;;;;9.98;6.22;;;;;;;;;;4974055;28;20034;-73
2021/07/19 04:15:01;;;;;;;14.07;6.22;;;;;;;;;;4956282;28;20031;-74
2021/07/19 04:17:27;;;;;;;13.23;6.00;;;;;;;;;;4956493;28;20086;-74
2021/07/19 04:19:52;;;;;;;9.25;5.60;;;;;;;;;;4973862;28;20035;-74
2021/07/19 04:22:19;;;;;;;11.63;6.40;;;;;;;;;;4956768;28;20066;-73
2021/07/19 04:24:45;;;;;;;9.48;5.18;;;;;;;;;;4973947;28;20383;-74
2021/07/19 04:27:13;;;;;;;11.38;5.15;;;;;;;;;;4956603;28;20067;-74
2021/07/19 04:29:39;;;;;;;18.00;7.30;;;;;;;;;;4974208;28;20499;-74
2021/07/19 04:32:05;;;;;;;9.73;5.50;;;;;;;;;;4973920;28;20031;-74
2021/07/19 04:34:32;;;;;;;10.88;4.85;;;;;;;;;;4956466;28;20034;-74
2021/07/19 04:37:06;;;;;;;8.63;5.18;;;;;;;;;;4955947;28;20023;-74
2021/07/19 04:39:32;;;;;;;7.65;5.50;;;;;;;;;;4973391;28;20138;-74
2021/07/19 04:42:01;;;;;;;10.80;6.07;;;;;;;;;;4955712;28;20338;-74
2021/07/19 04:44:26;;;;;;;9.48;4.65;;;;;;;;;;4956195;28;20042;-74
2021/07/19 04:46:53;;;;;;;10.63;5.03;;;;;;;;;;4955879;28;20034;-72
2021/07/19 04:49:19;;;;;;;21.42;10.52;;;;;;;;;;4955910;28;20035;-74
2021/07/19 04:51:46;;;;;;;8.60;5.10;;;;;;;;;;4956030;28;20038;-73
2021/07/19 04:54:16;;;;;;;12.82;6.00;;;;;;;;;;4973671;28;20093;-73
2021/07/19 04:56:42;;;;;;;11.27;6.05;;;;;;;;;;4955778;28;20082;-74
2021/07/19 04:59:08;;;;;;;9.98;5.80;;;;;;;;;;4973216;28;20035;-73
2021/07/19 05:01:35;;;;;;;11.68;5.30;;;;;;;;;;4956113;28;20122;-73
2021/07/19 05:04:02;;;;;;;15.13;5.32;;;;;;;;;;4972968;28;20030;-72
2021/07/19 05:06:29;;;;;;;10.18;5.72;;;;;;;;;;4955408;28;20057;-72
2021/07/19 05:08:57;;;;;;;14.32;5.70;;;;;;;;;;4972801;28;20039;-72
2021/07/19 05:11:25;;;;;;;31.92;6.80;;;;;;;;;;4972821;28;20031;-72
2021/07/19 05:13:50;;;;;;;8.93;5.78;;;;;;;;;;4971989;28;20088;-73
2021/07/19 05:16:17;;;;;;;32.55;7.05;;;;;;;;;;4955165;28;20113;-72
2021/07/19 05:18:44;;;;;;;76.15;9.98;;;;;;;;;;4955345;28;20034;-72
2021/07/19 05:21:10;;;;;;;11.07;6.53;;;;;;;;;;4955225;28;20486;-74
2021/07/19 05:23:37;;;;;;;13.02;6.13;;;;;;;;;;4955356;28;20074;-74
2021/07/19 05:26:03;;;;;;;17.77;8.77;;;;;;;;;;4955211;28;20034;-74
2021/07/19 05:28:28;;;;;;;10.82;5.18;;;;;;;;;;4955453;28;20046;-74
2021/07/19 05:30:54;;;;;;;15.43;6.15;;;;;;;;;;4972524;28;20489;-74
2021/07/19 05:33:23;;;;;;;11.93;5.53;;;;;;;;;;4973397;28;20030;-74
2021/07/19 05:35:49;;;;;;;12.05;6.53;;;;;;;;;;4973079;28;20100;-74
2021/07/19 05:38:15;;;;;;;8.85;5.38;;;;;;;;;;4961247;28;20027;-74
2021/07/19 05:40:42;;;;;;;17.00;6.93;;;;;;;;;;4961055;28;20405;-73
2021/07/19 05:43:08;;;;;;;9.13;5.15;;;;;;;;;;4956777;28;20050;-72
2021/07/19 05:45:34;;;;;;;11.88;4.70;;;;;;;;;;4972406;28;20061;-74
2021/07/19 05:48:00;;;;;;;11.13;4.72;;;;;;;;;;4971482;28;20467;-74
2021/07/19 05:50:30;;;;;;;14.25;5.30;;;;;;;;;;4954727;28;20034;-74
2021/07/19 05:52:57;;;;;;;16.55;6.07;;;;;;;;;;4954731;28;20049;-74
2021/07/19 05:55:23;;;;;;;12.85;4.75;;;;;;;;;;4955012;28;20118;-74
2021/07/19 05:57:48;;;;;;;10.57;4.85;;;;;;;;;;4954384;28;20029;-73
2021/07/19 06:00:16;;;;;;;13.52;5.20;;;;;;;;;;4954562;28;20030;-74
2021/07/19 06:02:43;;;;;;;11.77;5.07;;;;;;;;;;4954513;28;20039;-73
2021/07/19 06:05:09;;;;;;;12.68;5.07;;;;;;;;;;4954005;28;20061;-73
2021/07/19 06:07:35;;;;;;;8.18;4.68;;;;;;;;;;4953709;28;20031;-73
2021/07/19 06:10:03;;;;;;;9.30;4.50;;;;;;;;;;4954250;28;20506;-73
2021/07/19 06:12:28;;;;;;;13.18;5.10;;;;;;;;;;4971796;28;20066;-74
2021/07/19 06:14:54;;;;;;;16.52;5.35;;;;;;;;;;4954127;28;20061;-74
2021/07/19 06:17:20;;;;;;;11.18;4.65;;;;;;;;;;4954323;28;20046;-74
2021/07/19 06:19:45;;;;;;;12.20;4.88;;;;;;;;;;4953538;28;20035;-74
2021/07/19 06:22:12;;;;;;;19.67;5.25;;;;;;;;;;4953281;28;20114;-73
2021/07/19 06:24:38;;;;;;;10.48;4.55;;;;;;;;;;4938872;28;20110;-72
2021/07/19 06:27:04;;;;;;;10.40;4.43;;;;;;;;;;4962225;28;20030;-73
2021/07/19 06:29:30;;;;;;;12.50;5.13;;;;;;;;;;4944647;28;20038;-74
2021/07/19 06:31:56;;;;;;;9.55;4.38;;;;;;;;;;4968042;28;20103;-73
2021/07/19 06:34:21;;;;;;;8.50;4.05;;;;;;;;;;4963664;28;20045;-71
2021/07/19 06:36:49;;;;;;;10.80;4.97;;;;;;;;;;4946658;28;20170;-74
2021/07/19 06:39:14;;;;;;;12.80;5.68;;;;;;;;;;4960885;28;20070;-74
2021/07/19 06:41:40;;;;;;;11.70;4.68;;;;;;;;;;4950083;28;20039;-73
2021/07/19 06:44:05;;;;;;;7.28;4.47;;;;;;;;;;4954535;28;20044;-73
2021/07/19 06:46:31;;;;;;;11.35;4.70;;;;;;;;;;4953339;28;20034;-75
2021/07/19 06:48:56;;;;;;;13.25;4.82;;;;;;;;;;4963192;28;20027;-73
2021/07/19 06:51:22;;;;;;;15.45;5.25;;;;;;;;;;4948833;28;20023;-73
2021/07/19 06:53:49;;;;;;;14.60;5.15;;;;;;;;;;4942363;28;20794;-74
2021/07/19 06:56:36;;;;;;;11.50;4.35;;;;;;;;;;5108743;27;20122;-74
2021/07/19 06:59:01;;;;;;;12.85;5.65;;;;;;;;;;5076369;27;20031;-78
2021/07/19 07:01:27;;;;;;;9.10;4.97;;;;;;;;;;5064578;28;20035;-74
2021/07/19 07:03:55;;;;;;;11.82;4.78;;;;;;;;;;5060575;28;20303;-73
2021/07/19 07:06:21;;;;;;;10.98;4.80;;;;;;;;;;5050060;28;20585;-74
2021/07/19 07:08:46;;;;;;;11.48;4.32;;;;;;;;;;5057296;28;20040;-74
2021/07/19 07:11:13;;;;;;;8.90;3.97;;;;;;;;;;5053453;28;20076;-73
2021/07/19 07:13:40;;;;;;;13.85;4.05;;;;;;;;;;5063157;28;20024;-73
2021/07/19 07:16:06;;;;;;;19.20;4.95;;;;;;;;;;5063755;28;20452;-73
2021/07/19 07:18:32;;;;;;;10.25;4.47;;;;;;;;;;5061246;28;20114;-73
2021/07/19 07:20:58;;;;;;;15.70;4.18;;;;;;;;;;5064366;28;20400;-75
2021/07/19 07:23:24;;;;;;;11.25;4.78;;;;;;;;;;5059976;28;20031;-74
2021/07/19 07:25:50;;;;;;;9.00;4.55;;;;;;;;;;5060676;28;20020;-74
2021/07/19 07:28:15;;;;;;;6.35;4.10;;;;;;;;;;5063198;28;20035;-74
2021/07/19 07:30:41;;;;;;;14.65;6.40;;;;;;;;;;5075050;28;20032;-74
2021/07/19 07:33:06;;;;;;;7.32;4.35;;;;;;;;;;5055637;28;20078;-73
2021/07/19 07:35:32;;;;;;;8.15;4.30;;;;;;;;;;5059116;28;20481;-73
2021/07/19 07:37:58;;;;;;;18.80;5.35;;;;;;;;;;5058013;28;20033;-73
2021/07/19 07:40:23;;;;;;;13.40;5.70;;;;;;;;;;5050403;28;20032;-75
2021/07/19 07:42:49;;;;;;;12.43;5.90;;;;;;;;;;5055496;28;20033;-74
2021/07/19 07:45:15;;;;;;;11.93;5.05;;;;;;;;;;5058925;28;20028;-75
2021/07/19 07:47:42;;;;;;;16.25;4.90;;;;;;;;;;5054678;28;20025;-74
2021/07/19 07:50:08;;;;;;;12.23;6.30;;;;;;;;;;5071851;28;20050;-74
2021/07/19 07:52:34;;;;;;;11.18;5.55;;;;;;;;;;5049927;28;20120;-73
2021/07/19 07:55:00;;;;;;;7.93;5.22;;;;;;;;;;5055612;28;20204;-74
2021/07/19 07:57:25;;;;;;;9.10;6.63;;;;;;;;;;5050559;28;20155;-73
2021/07/19 07:59:51;;;;;;;12.02;6.18;;;;;;;;;;5073309;28;20048;-76
2021/07/19 08:02:16;;;;;;;16.20;6.70;;;;;;;;;;5053705;28;20673;-74
2021/07/19 08:04:42;;;;;;;19.95;5.95;;;;;;;;;;5055888;28;20107;-72
2021/07/19 08:07:07;;;;;;;11.38;5.93;;;;;;;;;;5056829;28;20469;-73
2021/07/19 08:09:33;;;;;;;9.15;5.75;;;;;;;;;;5045184;28;20504;-73
2021/07/19 08:11:59;;;;;;;13.65;5.32;;;;;;;;;;5037920;28;20025;-73
2021/07/19 08:14:25;;;;;;;12.55;5.85;;;;;;;;;;5040754;28;20553;-73
2021/07/19 08:16:51;;;;;;;9.88;5.85;;;;;;;;;;5045273;28;20755;-72
2021/07/19 08:19:17;;;;;;;8.35;5.30;;;;;;;;;;5043947;28;20041;-72
2021/07/19 08:21:42;;;;;;;11.10;5.80;;;;;;;;;;5038679;28;20063;-73
2021/07/19 08:24:08;;;;;;;14.55;6.78;;;;;;;;;;5034325;28;20056;-72
2021/07/19 08:26:35;;;;;;;10.82;6.55;;;;;;;;;;5041799;28;20071;-74
2021/07/19 08:29:01;;;;;;;17.15;6.93;;;;;;;;;;5041281;28;20054;-73
2021/07/19 08:31:28;;;;;;;14.98;7.05;;;;;;;;;;5029203;28;20508;-73
2021/07/19 08:33:55;;;;;;;11.18;7.40;;;;;;;;;;5037212;28;20067;-74
2021/07/19 08:36:21;;;;;;;10.90;7.63;;;;;;;;;;5043309;28;20489;-74
2021/07/19 08:38:48;;;;;;;9.23;6.72;;;;;;;;;;5048460;28;20041;-74
2021/07/19 08:41:16;;;;;;;13.48;6.78;;;;;;;;;;5037854;28;20470;-73
2021/07/19 08:43:43;;;;;;;12.57;6.30;;;;;;;;;;5038659;28;20033;-74
2021/07/19 08:46:10;;;;;;;11.15;6.45;;;;;;;;;;5034411;28;20543;-73
2021/07/19 08:48:36;;;;;;;11.77;6.43;;;;;;;;;;5043851;28;20082;-75
2021/07/19 08:51:03;;;;;;;12.63;7.45;;;;;;;;;;5037057;28;20087;-74
2021/07/19 08:53:49;;;;;;;15.57;6.80;;;;;;;;;;5034058;28;20044;-75
2021/07/19 08:56:15;;;;;;;10.43;5.88;;;;;;;;;;5033661;28;20041;-74
2021/07/19 08:58:44;;;;;;;14.70;6.38;;;;;;;;;;5038886;28;20052;-74
2021/07/19 09:01:12;;;;;;;15.35;7.28;;;;;;;;;;5026062;28;20480;-72
2021/07/19 09:03:38;;;;;;;15.05;7.13;;;;;;;;;;5038000;28;20026;-75
2021/07/19 09:06:04;;;;;;;12.80;6.43;;;;;;;;;;5054203;28;20029;-73
2021/07/19 09:08:30;;;;;;;15.40;7.50;;;;;;;;;;5047024;28;20032;-73
2021/07/19 09:11:07;;;;;;;17.60;8.52;;;;;;;;;;5042729;28;20071;-74
2021/07/19 09:13:32;;;;;;;15.38;8.10;;;;;;;;;;5033018;28;20527;-75
2021/07/19 09:15:58;;;;;;;8.52;7.00;;;;;;;;;;5032782;28;20042;-74
2021/07/19 09:18:24;;;;;;;25.67;8.65;;;;;;;;;;5046939;28;20055;-73
2021/07/19 09:20:51;;;;;;;13.88;6.57;;;;;;;;;;5043619;28;20043;-75
2021/07/19 09:23:28;;;;;;;17.10;7.75;;;;;;;;;;5038337;28;20017;-75
2021/07/19 09:25:56;;;;;;;15.90;8.60;;;;;;;;;;5032370;28;20454;-74
2021/07/19 09:28:29;;;;;;;17.48;8.80;;;;;;;;;;5037823;28;20395;-74
2021/07/19 09:31:03;;;;;;;13.70;8.02;;;;;;;;;;5043022;28;20048;-74
2021/07/19 09:33:29;;;;;;;13.05;6.80;;;;;;;;;;5056401;28;20143;-74
2021/07/19 09:35:54;;;;;;;14.45;7.65;;;;;;;;;;5032721;28;21575;-75
2021/07/19 09:38:20;;;;;;;11.25;8.07;;;;;;;;;;5033383;28;20032;-73
2021/07/19 09:40:52;;;;;;;15.77;7.43;;;;;;;;;;5039771;28;20567;-74
2021/07/19 09:43:22;;;;;;;19.60;7.45;;;;;;;;;;5044781;28;20029;-74
2021/07/19 09:46:00;;;;;;;8.63;6.38;;;;;;;;;;5030000;28;20159;-74
2021/07/19 09:48:27;;;;;;;11.88;7.32;;;;;;;;;;5043703;28;20033;-75
2021/07/19 09:50:53;;;;;;;11.00;7.47;;;;;;;;;;5035197;28;20032;-74
2021/07/19 09:53:29;;;;;;;10.55;7.28;;;;;;;;;;5054004;28;20043;-73
2021/07/19 09:56:12;;;;;;;9.88;6.30;;;;;;;;;;5026580;28;20045;-74
2021/07/19 09:58:42;;;;;;;11.18;6.88;;;;;;;;;;5037693;28;20573;-75
2021/07/19 10:01:08;;;;;;;12.13;6.68;;;;;;;;;;5041117;28;20031;-75
2021/07/19 10:03:35;;;;;;;7.18;6.22;;;;;;;;;;5034655;28;20369;-75
2021/07/19 10:06:07;;;;;;;11.00;7.63;;;;;;;;;;5041599;28;20028;-75
2021/07/19 10:08:33;;;;;;;14.20;6.40;;;;;;;;;;5044839;28;20057;-74
2021/07/19 10:11:00;;;;;;;12.48;6.68;;;;;;;;;;5040352;28;20434;-75
2021/07/19 10:13:34;;;;;;;11.23;6.85;;;;;;;;;;5039537;28;20037;-75
2021/07/19 10:16:03;;;;;;;13.73;8.38;;;;;;;;;;5043832;28;20058;-74
2021/07/19 10:18:30;;;;;;;18.77;9.60;;;;;;;;;;5046348;28;20025;-74
2021/07/19 10:20:57;;;;;;;16.73;8.80;;;;;;;;;;5048130;28;20035;-75
2021/07/19 10:23:23;;;;;;;11.65;8.15;;;;;;;;;;5042917;28;20043;-75
2021/07/19 10:25:53;;;;;;;12.23;9.77;;;;;;;;;;5033920;28;20021;-74
2021/07/19 10:28:18;;;;;;;12.00;7.75;;;;;;;;;;5056461;28;20448;-75
2021/07/19 10:30:44;;;;;;;11.80;7.72;;;;;;;;;;5052451;28;20104;-75
2021/07/19 10:33:10;;;;;;;13.48;7.22;;;;;;;;;;5041576;28;20029;-74
2021/07/19 10:35:36;;;;;;;9.68;6.72;;;;;;;;;;5030574;28;20649;-77
2021/07/19 10:38:08;;;;;;;11.98;7.53;;;;;;;;;;5032149;28;20025;-75
2021/07/19 10:40:36;;;;;;;14.52;7.30;;;;;;;;;;5029719;28;20093;-74
2021/07/19 10:43:16;;;;;;;11.75;7.50;;;;;;;;;;5034674;28;20120;-76
2021/07/19 10:45:50;;;;;;;12.03;6.57;;;;;;;;;;5024694;28;20088;-75
2021/07/19 10:48:30;;;;;;;11.50;7.72;;;;;;;;;;5036047;28;20278;-74
2021/07/19 10:50:58;;;;;;;14.23;7.07;;;;;;;;;;5026536;28;20423;-75
2021/07/19 10:53:29;;;;;;;18.42;7.20;;;;;;;;;;5027073;28;20110;-75
2021/07/19 10:56:09;;;;;;;9.00;6.32;;;;;;;;;;5031725;28;20391;-74
2021/07/19 10:58:56;;;;;;;9.95;6.53;;;;;;;;;;5030632;28;20039;-75
2021/07/19 11:01:28;;;;;;;15.43;6.45;;;;;;;;;;5034336;28;20132;-74
2021/07/19 11:03:55;;;;;;;15.15;6.90;;;;;;;;;;5026788;28;20036;-75
2021/07/19 11:06:38;;;;;;;21.63;15.02;;;;;;;;;;5034462;28;20028;-74
2021/07/19 11:09:09;;;;;;;13.13;7.55;;;;;;;;;;5033899;28;20067;-75
2021/07/19 11:11:36;;;;;;;;;;;;;;;;;;5031305;28;20071;-75
2021/07/19 11:14:07;;;;;;;17.05;10.57;;;;;;;;;;5029243;28;19921;-74
2021/07/19 11:16:51;;;;;;;13.57;7.03;;;;;;;;;;5032556;28;20128;-73
2021/07/19 11:19:28;;;;;;;10.85;7.30;;;;;;;;;;5028465;28;20021;-73
2021/07/19 11:22:08;;;;;;;16.33;8.38;;;;;;;;;;5030271;28;20475;-75
2021/07/19 11:24:39;;;;;;;11.93;7.72;;;;;;;;;;5029948;28;20751;-73
2021/07/19 11:27:05;;;;;;;12.18;7.55;;;;;;;;;;5033878;28;20368;-73
2021/07/19 11:29:38;;;;;;;11.75;7.72;;;;;;;;;;5038988;28;20032;-73
2021/07/19 11:32:18;;;;;;;15.80;7.93;;;;;;;;;;5037993;28;20049;-72
2021/07/19 11:34:46;;;;;;;13.00;8.35;;;;;;;;;;5040609;28;20021;-74
2021/07/19 11:37:11;;;;;;;15.40;8.52;;;;;;;;;;5034606;28;20497;-74
2021/07/19 11:39:45;;;;;;;16.55;8.23;;;;;;;;;;5026574;28;20540;-74
2021/07/19 11:42:12;;;;;;;15.05;8.77;;;;;;;;;;5039732;28;20038;-72
2021/07/19 11:44:38;;;;;;;15.10;8.07;;;;;;;;;;5039114;28;20064;-73
2021/07/19 11:47:06;;;;;;;13.68;7.90;;;;;;;;;;5037632;28;20036;-72
2021/07/19 11:49:32;;;;;;;15.15;8.93;;;;;;;;;;5035702;28;20028;-73
2021/07/19 11:51:58;;;;;;;17.05;7.40;;;;;;;;;;5035969;28;20048;-74
2021/07/19 11:54:25;;;;;;;13.50;7.57;;;;;;;;;;5041828;28;20078;-73
2021/07/19 11:56:56;;;;;;;15.35;7.75;;;;;;;;;;5042463;28;20032;-72
2021/07/19 11:59:28;;;;;;;14.00;7.28;;;;;;;;;;5036210;28;20036;-75
2021/07/19 12:02:02;;;;;;;13.98;7.75;;;;;;;;;;5038959;28;20034;-73
2021/07/19 12:04:41;;;;;;;12.05;7.57;;;;;;;;;;5030168;28;20036;-73
2021/07/19 12:07:09;;;;;;;14.55;7.63;;;;;;;;;;5042857;28;20570;-73
2021/07/19 12:09:35;;;;;;;9.35;6.95;;;;;;;;;;5045825;28;20033;-74
2021/07/19 12:12:02;;;;;;;14.73;9.45;;;;;;;;;;5042205;28;20036;-74
2021/07/19 12:14:30;;;;;;;13.32;6.97;;;;;;;;;;5044392;28;20021;-72
2021/07/19 12:16:56;;;;;;;11.57;6.85;;;;;;;;;;5037014;28;20498;-73
2021/07/19 12:19:22;;;;;;;14.95;8.00;;;;;;;;;;5040632;28;20060;-74
2021/07/19 12:21:53;;;;;;;16.75;6.68;;;;;;;;;;5050376;28;20473;-74
2021/07/19 12:24:25;;;;;;;;;;;;;;;;;;5038419;28;20156;-73
2021/07/19 12:26:55;;;;;;;11.60;6.60;;;;;;;;;;5042170;28;21257;-74
2021/07/19 12:29:33;;;;;;;17.15;7.65;;;;;;;;;;5046064;28;20033;-73
2021/07/19 12:32:04;;;;;;;12.43;7.63;;;;;;;;;;5034831;28;20535;-73
2021/07/19 12:34:37;;;;;;;13.80;7.00;;;;;;;;;;5044408;28;20025;-73
2021/07/19 12:37:05;;;;;;;13.13;7.05;;;;;;;;;;5035097;28;20033;-73
2021/07/19 12:39:33;;;;;;;9.85;5.45;;;;;;;;;;5034330;28;20041;-75
2021/07/19 12:42:02;;;;;;;8.63;5.95;;;;;;;;;;5039439;28;20024;-74
2021/07/19 12:44:31;;;;;;;12.13;6.72;;;;;;;;;;5034151;28;20039;-72
2021/07/19 12:46:58;;;;;;;9.90;5.07;;;;;;;;;;5027418;28;20103;-73
2021/07/19 12:49:38;;;;;;;11.35;6.03;;;;;;;;;;5034994;28;20033;-77
2021/07/19 12:52:16;;;;;;;9.88;6.05;;;;;;;;;;5042195;28;20144;-73
2021/07/19 12:54:54;;;;;;;8.27;5.25;;;;;;;;;;5036091;28;20041;-75
2021/07/19 12:57:20;;;;;;;9.95;5.22;;;;;;;;;;5044447;28;21137;-73
2021/07/19 12:59:51;;;;;;;9.45;6.38;;;;;;;;;;5034275;28;20269;-74
2021/07/19 13:02:16;;;;;;;;;;;;;;;;;;5041881;28;20025;-73
2021/07/19 13:04:42;;;;;;;10.82;5.85;;;;;;;;;;5041555;28;20847;-75
2021/07/19 13:07:08;;;;;;;19.50;7.18;;;;;;;;;;5043146;28;20119;-73
2021/07/19 13:09:33;;;;;;;12.32;7.00;;;;;;;;;;5035734;28;20025;-74
2021/07/19 13:12:00;;;;;;;13.90;7.25;;;;;;;;;;5046426;28;20030;-75
2021/07/19 13:14:43;;;;;;;10.55;7.07;;;;;;;;;;5035737;28;20033;-74
2021/07/19 13:17:21;;;;;;;10.20;6.18;;;;;;;;;;5041239;28;20056;-73
2021/07/19 13:19:51;;;;;;;14.27;7.10;;;;;;;;;;5034553;28;20492;-73
2021/07/19 13:22:17;;;;;;;11.90;7.35;;;;;;;;;;5043583;28;20413;-73
2021/07/19 13:24:45;;;;;;;15.55;7.35;;;;;;;;;;5055943;28;20112;-74
2021/07/19 13:27:17;;;;;;;13.00;7.25;;;;;;;;;;5038858;28;20538;-73
2021/07/19 13:29:52;;;;;;;13.50;7.15;;;;;;;;;;5036974;28;20017;-74
2021/07/19 13:32:20;;;;;;;10.90;6.68;;;;;;;;;;5035222;28;20025;-74
2021/07/19 13:34:59;;;;;;;12.32;6.65;;;;;;;;;;5033899;28;20014;-74
2021/07/19 13:37:26;;;;;;;12.13;6.63;;;;;;;;;;5032508;28;20496;-74
2021/07/19 13:39:51;;;;;;;15.48;7.78;;;;;;;;;;5032760;28;20033;-74
2021/07/19 13:42:19;;;;;;;14.60;7.75;;;;;;;;;;5049196;28;20036;-75
2021/07/19 13:44:51;;;;;;;11.65;7.18;;;;;;;;;;5038305;28;20361;-73
2021/07/19 13:47:17;;;;;;;18.45;7.53;;;;;;;;;;5039419;28;20032;-73
2021/07/19 13:49:45;;;;;;;14.93;8.18;;;;;;;;;;5053467;28;20030;-73
2021/07/19 13:52:10;;;;;;;15.30;7.15;;;;;;;;;;5038492;28;20055;-73
2021/07/19 13:54:36;;;;;;;15.52;7.78;;;;;;;;;;5044238;28;20415;-74
2021/07/19 13:57:02;;;;;;;12.65;7.50;;;;;;;;;;5041411;28;20040;-74
2021/07/19 13:59:28;;;;;;;12.35;7.03;;;;;;;;;;5043509;28;20040;-76
2021/07/19 14:01:54;;;;;;;14.48;7.07;;;;;;;;;;5042478;28;20028;-74
2021/07/19 14:04:20;;;;;;;13.00;7.38;;;;;;;;;;5040994;28;20036;-73
2021/07/19 14:06:46;;;;;;;22.35;8.75;;;;;;;;;;5045922;28;20029;-74
2021/07/19 14:09:12;;;;;;;18.65;8.15;;;;;;;;;;5036618;28;20544;-72
2021/07/19 14:11:38;;;;;;;16.85;8.32;;;;;;;;;;5035962;28;20419;-74
2021/07/19 14:14:04;;;;;;;14.23;8.15;;;;;;;;;;5034326;28;20063;-72
2021/07/19 14:16:30;;;;;;;12.63;7.45;;;;;;;;;;5051948;28;20028;-75
2021/07/19 14:18:55;;;;;;;14.68;8.52;;;;;;;;;;5037980;28;20031;-73
2021/07/19 14:21:21;;;;;;;22.58;11.90;;;;;;;;;;5059775;28;20024;-73
2021/07/19 14:23:46;;;;;;;15.25;8.02;;;;;;;;;;5040265;28;20027;-73
2021/07/19 14:26:13;;;;;;;14.32;7.75;;;;;;;;;;5039515;28;20018;-75
2021/07/19 14:28:38;;;;;;;18.02;8.27;;;;;;;;;;5045794;28;20029;-74
2021/07/19 14:31:04;;;;;;;18.55;8.27;;;;;;;;;;5046191;28;20102;-74
2021/07/19 14:33:30;;;;;;;17.17;8.20;;;;;;;;;;5038260;28;20048;-73
2021/07/19 14:35:55;;;;;;;13.13;7.53;;;;;;;;;;5047341;28;20497;-72
2021/07/19 14:38:23;;;;;;;14.35;7.47;;;;;;;;;;5046260;28;20047;-74
2021/07/19 14:40:49;;;;;;;14.95;8.40;;;;;;;;;;5041216;28;20083;-74